createdAt,value
2022-11-09T00:01:16.994Z,96045.78
2022-11-09T00:03:49.980Z,96049.66
2022-11-09T00:06:23.014Z,96065.81
2022-11-09T00:08:56.131Z,96057.16
2022-11-09T00:11:30.490Z,96051.94
2022-11-09T00:14:03.456Z,96046.28
2022-11-09T00:16:36.517Z,96044.41
2022-11-09T00:19:09.384Z,96039.06
2022-11-09T00:21:42.293Z,96034.81
2022-11-09T00:24:15.255Z,96037.81
2022-11-09T00:26:50.085Z,96035.47
2022-11-09T00:29:23.256Z,96042.13
2022-11-09T00:31:56.090Z,96033.66
2022-11-09T00:34:28.917Z,96031.31
2022-11-09T00:37:01.753Z,96018.97
2022-11-09T00:39:34.617Z,96028.06
2022-11-09T00:42:09.166Z,96022.28
2022-11-09T00:44:42.160Z,96027.19
2022-11-09T00:47:15.064Z,96027.81
2022-11-09T00:49:48.182Z,96023.59
2022-11-09T00:52:20.959Z,96019.69
2022-11-09T00:54:53.732Z,96020.78
2022-11-09T00:57:28.340Z,96022.66
2022-11-09T01:00:01.233Z,96023.13
2022-11-09T01:02:34.102Z,96012.91
2022-11-09T01:05:07.572Z,96012.72
2022-11-09T01:07:40.775Z,95997.63
2022-11-09T01:10:13.836Z,96006.19
2022-11-09T01:12:48.074Z,96003.34
2022-11-09T01:15:20.927Z,96011.00
2022-11-09T01:17:53.858Z,96006.88
2022-11-09T01:20:26.720Z,96024.16
2022-11-09T01:22:59.768Z,96026.50
2022-11-09T01:25:32.790Z,96035.59
2022-11-09T01:28:08.549Z,96042.06
2022-11-09T01:30:43.431Z,96040.81
2022-11-09T01:33:16.579Z,96044.47
2022-11-09T01:35:49.667Z,96033.66
2022-11-09T01:38:22.498Z,96025.53
2022-11-09T01:40:55.535Z,96025.09
2022-11-09T01:43:30.120Z,96015.38
2022-11-09T01:46:07.850Z,96014.94
2022-11-09T01:48:45.191Z,96020.13
2022-11-09T01:51:25.100Z,96014.66
2022-11-09T01:54:01.584Z,96015.00
2022-11-09T01:56:34.814Z,96015.78
2022-11-09T01:59:13.887Z,96020.78
2022-11-09T02:01:47.722Z,96011.69
2022-11-09T02:04:25.760Z,96020.72
2022-11-09T02:07:00.813Z,96016.63
2022-11-09T02:09:41.138Z,96016.88
2022-11-09T02:12:14.668Z,96020.13
2022-11-09T02:14:51.557Z,96024.59
2022-11-09T02:17:25.067Z,96020.16
2022-11-09T02:19:58.957Z,96020.84
2022-11-09T02:22:34.673Z,96011.50
2022-11-09T02:25:09.130Z,96014.44
2022-11-09T02:27:43.873Z,96012.00
2022-11-09T02:30:17.215Z,96009.91
2022-11-09T02:32:50.014Z,96008.22
2022-11-09T02:35:22.814Z,96000.03
2022-11-09T02:37:57.162Z,96000.25
2022-11-09T02:40:32.883Z,95997.34
2022-11-09T02:43:07.331Z,95987.56
2022-11-09T02:45:40.155Z,95987.00
2022-11-09T02:48:12.996Z,95987.13
2022-11-09T02:50:45.783Z,95994.13
2022-11-09T02:53:20.282Z,95998.13
2022-11-09T02:55:53.252Z,96007.81
2022-11-09T02:58:26.101Z,96002.25
2022-11-09T03:00:58.876Z,96011.16
2022-11-09T03:03:31.966Z,96006.03
2022-11-09T03:06:05.234Z,96008.84
2022-11-09T03:08:39.446Z,96019.44
2022-11-09T03:11:12.422Z,96018.75
2022-11-09T03:13:45.351Z,96021.63
2022-11-09T03:16:18.285Z,96014.94
2022-11-09T03:18:52.167Z,96010.91
2022-11-09T03:21:25.462Z,96017.56
2022-11-09T03:23:59.985Z,95997.06
2022-11-09T03:26:32.825Z,96003.28
2022-11-09T03:29:05.669Z,95999.16
2022-11-09T03:31:39.796Z,96012.66
2022-11-09T03:34:12.864Z,96013.84
2022-11-09T03:36:45.649Z,96014.28
2022-11-09T03:39:20.031Z,96015.53
2022-11-09T03:41:53.057Z,96015.97
2022-11-09T03:44:26.140Z,96018.72
2022-11-09T03:46:58.953Z,96018.41
2022-11-09T03:49:31.818Z,96015.81
2022-11-09T03:52:04.827Z,96022.81
2022-11-09T03:54:39.378Z,96028.72
2022-11-09T03:57:12.241Z,96031.50
2022-11-09T03:59:45.055Z,96035.47
2022-11-09T04:02:17.854Z,96040.59
2022-11-09T04:04:50.759Z,96042.69
2022-11-09T04:07:23.548Z,96043.22
2022-11-09T04:09:58.109Z,96047.63
2022-11-09T04:12:30.858Z,96049.31
2022-11-09T04:15:03.660Z,96048.38
2022-11-09T04:17:36.514Z,96057.28
2022-11-09T04:20:10.591Z,96063.66
2022-11-09T04:22:43.425Z,96073.66
2022-11-09T04:25:17.765Z,96086.06
2022-11-09T04:27:54.835Z,96086.50
2022-11-09T04:30:29.597Z,96097.63
2022-11-09T04:33:03.302Z,96088.81
2022-11-09T04:35:36.710Z,96089.94
2022-11-09T04:38:13.639Z,96096.06
2022-11-09T04:40:48.034Z,96099.13
2022-11-09T04:43:21.080Z,96105.59
2022-11-09T04:45:54.255Z,96100.56
2022-11-09T04:48:27.176Z,96110.97
2022-11-09T04:51:01.724Z,96117.44
2022-11-09T04:53:35.322Z,96113.19
2022-11-09T04:56:10.098Z,96112.06
2022-11-09T04:58:43.338Z,96121.22
2022-11-09T05:01:16.762Z,96113.19
2022-11-09T05:03:49.740Z,96130.84
2022-11-09T05:06:34.821Z,96128.50
2022-11-09T05:09:08.846Z,96129.28
2022-11-09T05:11:43.502Z,96123.13
2022-11-09T05:14:16.508Z,96130.41
2022-11-09T05:16:49.568Z,96129.28
2022-11-09T05:19:22.376Z,96125.03
2022-11-09T05:21:55.257Z,96127.38
2022-11-09T05:24:27.029Z,96118.56
2022-11-09T05:27:01.327Z,96127.03
2022-11-09T05:29:34.166Z,96130.91
2022-11-09T05:32:07.228Z,96126.34
2022-11-09T05:34:40.098Z,96125.56
2022-11-09T05:37:12.902Z,96122.88
2022-11-09T05:39:45.661Z,96121.34
2022-11-09T05:42:20.191Z,96117.44
2022-11-09T05:44:53.065Z,96129.63
2022-11-09T05:47:26.011Z,96121.91
2022-11-09T05:49:58.806Z,96134.53
2022-11-09T05:52:31.676Z,96137.56
2022-11-09T05:55:05.465Z,96152.50
2022-11-09T05:57:39.871Z,96153.19
2022-11-09T06:00:14.161Z,96158.53
2022-11-09T06:02:47.112Z,96166.59
2022-11-09T06:05:20.214Z,96168.81
2022-11-09T06:07:53.164Z,96173.06
2022-11-09T06:10:25.960Z,96172.28
2022-11-09T06:13:00.434Z,96166.16
2022-11-09T06:15:33.332Z,96163.78
2022-11-09T06:18:06.194Z,96168.81
2022-11-09T06:20:39.015Z,96175.31
2022-11-09T06:23:12.178Z,96174.84
2022-11-09T06:25:44.947Z,96173.28
2022-11-09T06:28:19.301Z,96171.75
2022-11-09T06:30:52.113Z,96177.91
2022-11-09T06:33:24.953Z,96183.59
2022-11-09T06:35:58.117Z,96189.75
2022-11-09T06:38:31.306Z,96185.94
2022-11-09T06:41:04.304Z,96187.47
2022-11-09T06:43:38.789Z,96186.94
2022-11-09T06:46:12.183Z,96190.03
2022-11-09T06:48:53.339Z,96191.38
2022-11-09T06:51:27.805Z,96179.97
2022-11-09T06:54:00.611Z,96189.34
2022-11-09T06:56:33.446Z,96196.00
2022-11-09T06:59:08.007Z,96198.44
2022-11-09T07:01:40.882Z,96201.31
2022-11-09T07:04:15.206Z,96202.97
2022-11-09T07:06:48.070Z,96206.59
2022-11-09T07:09:21.015Z,96206.00
2022-11-09T07:11:53.784Z,96202.75
2022-11-09T07:14:28.079Z,96194.53
2022-11-09T07:17:00.847Z,96188.91
2022-11-09T07:19:33.642Z,96198.69
2022-11-09T07:22:07.322Z,96203.44
2022-11-09T07:24:40.162Z,96209.44
2022-11-09T07:27:12.992Z,96211.94
2022-11-09T07:29:47.341Z,96220.59
2022-11-09T07:32:20.105Z,96220.75
2022-11-09T07:34:52.910Z,96224.06
2022-11-09T07:37:25.773Z,96216.97
2022-11-09T07:39:58.760Z,96225.19
2022-11-09T07:42:32.461Z,96214.16
2022-11-09T07:45:08.822Z,96221.59
2022-11-09T07:47:42.158Z,96220.56
2022-11-09T07:50:15.259Z,96227.56
2022-11-09T07:52:48.060Z,96223.41
2022-11-09T07:55:21.133Z,96224.25
2022-11-09T07:57:56.865Z,96222.09
2022-11-09T08:00:33.051Z,96223.69
2022-11-09T08:03:06.614Z,96233.34
2022-11-09T08:05:39.777Z,96240.34
2022-11-09T08:08:13.680Z,96236.16
2022-11-09T08:10:51.467Z,96239.38
2022-11-09T08:13:24.441Z,96229.81
2022-11-09T08:16:02.013Z,96227.63
2022-11-09T08:18:34.802Z,96221.19
2022-11-09T08:21:07.858Z,96218.22
2022-11-09T08:23:41.219Z,96213.69
2022-11-09T08:26:14.187Z,96213.03
2022-11-09T08:28:46.969Z,96210.44
2022-11-09T08:31:21.600Z,96214.38
2022-11-09T08:33:54.473Z,96221.06
2022-11-09T08:36:29.579Z,96210.44
2022-11-09T08:39:02.592Z,96211.69
2022-11-09T08:41:35.445Z,96209.56
2022-11-09T08:44:08.373Z,96215.50
2022-11-09T08:46:42.695Z,96213.78
2022-11-09T08:49:16.049Z,96208.16
2022-11-09T08:51:49.005Z,96211.00
2022-11-09T08:54:21.977Z,96213.09
2022-11-09T08:56:56.496Z,96221.00
2022-11-09T08:59:29.509Z,96212.66
2022-11-09T09:02:03.925Z,96215.53
2022-11-09T09:04:36.797Z,96208.34
2022-11-09T09:07:10.162Z,96205.75
2022-11-09T09:09:43.102Z,96205.44
2022-11-09T09:12:15.991Z,96200.94
2022-11-09T09:14:48.831Z,96193.66
2022-11-09T09:17:24.841Z,96189.88
2022-11-09T09:19:57.696Z,96183.72
2022-11-09T09:22:30.575Z,96183.44
2022-11-09T09:25:03.871Z,96178.03
2022-11-09T09:27:37.338Z,96176.50
2022-11-09T09:30:11.084Z,96171.53
2022-11-09T09:32:47.858Z,96184.69
2022-11-09T09:35:20.762Z,96183.97
2022-11-09T09:37:53.635Z,96182.09
2022-11-09T09:40:30.961Z,96192.19
2022-11-09T09:43:04.452Z,96179.91
2022-11-09T09:45:50.016Z,96200.44
2022-11-09T09:48:32.464Z,96190.88
2022-11-09T09:51:12.560Z,96196.72
2022-11-09T09:53:50.669Z,96192.53
2022-11-09T09:56:26.396Z,96191.47
2022-11-09T09:59:05.597Z,96197.31
2022-11-09T10:01:51.987Z,96199.66
2022-11-09T10:04:37.240Z,96197.34
2022-11-09T10:07:15.523Z,96194.25
2022-11-09T10:10:04.177Z,96201.63
2022-11-09T10:12:50.516Z,96193.16
2022-11-09T10:15:31.395Z,96194.72
2022-11-09T10:18:20.883Z,96194.75
2022-11-09T10:21:10.621Z,96187.06
2022-11-09T10:23:56.024Z,96175.53
2022-11-09T10:26:35.360Z,96179.78
2022-11-09T10:29:20.733Z,96184.09
2022-11-09T10:31:55.370Z,96194.53
2022-11-09T10:34:30.701Z,96194.22
2022-11-09T10:37:12.009Z,96196.63
2022-11-09T10:39:50.197Z,96186.22
2022-11-09T10:42:23.070Z,96182.38
2022-11-09T10:44:55.957Z,96180.91
2022-11-09T10:47:28.788Z,96180.56
2022-11-09T10:50:17.507Z,96190.63
2022-11-09T10:52:51.893Z,96176.38
2022-11-09T10:55:26.947Z,96181.03
2022-11-09T10:58:03.064Z,96179.91
2022-11-09T11:00:35.872Z,96173.00
2022-11-09T11:03:13.092Z,96176.16
2022-11-09T11:05:57.174Z,96171.53
2022-11-09T11:08:38.117Z,96169.63
2022-11-09T11:11:39.575Z,96175.06
2022-11-09T11:14:19.950Z,96167.00
2022-11-09T11:16:56.255Z,96163.16
2022-11-09T11:19:35.817Z,96168.19
2022-11-09T11:22:23.945Z,96157.00
2022-11-09T11:25:00.689Z,96160.47
2022-11-09T11:27:38.991Z,96144.22
2022-11-09T11:30:15.875Z,96139.94
2022-11-09T11:32:50.961Z,96132.63
2022-11-09T11:35:32.498Z,96135.34
2022-11-09T11:38:17.765Z,96134.56
2022-11-09T11:41:05.489Z,96132.66
2022-11-09T11:43:49.499Z,96120.31
2022-11-09T11:46:32.866Z,96125.72
2022-11-09T11:49:47.881Z,96123.81
2022-11-09T11:52:28.308Z,96113.38
2022-11-09T11:55:22.834Z,96121.50
2022-11-09T11:58:16.098Z,96111.47
2022-11-09T12:00:59.991Z,96112.25
2022-11-09T12:03:49.500Z,96102.94
2022-11-09T12:06:48.496Z,96096.75
2022-11-09T12:09:38.801Z,96100.59
2022-11-09T12:12:24.933Z,96096.72
2022-11-09T12:15:17.699Z,96099.81
2022-11-09T12:18:00.844Z,96107.50
2022-11-09T12:20:39.685Z,96116.75
2022-11-09T12:23:29.745Z,96104.34
2022-11-09T12:26:16.180Z,96093.50
2022-11-09T12:29:14.158Z,96094.22
2022-11-09T12:32:01.752Z,96104.19
2022-11-09T12:34:40.426Z,96104.50
2022-11-09T12:37:16.267Z,96095.53
2022-11-09T12:39:53.525Z,96103.19
2022-11-09T12:42:33.120Z,96102.38
2022-11-09T12:45:18.423Z,96102.28
2022-11-09T12:47:54.874Z,96100.28
2022-11-09T12:50:29.582Z,96096.69
2022-11-09T12:53:05.336Z,96103.53
2022-11-09T12:55:45.580Z,96106.94
2022-11-09T12:58:27.258Z,96111.13
2022-11-09T13:01:02.177Z,96114.13
2022-11-09T13:03:39.851Z,96113.31
2022-11-09T13:06:17.742Z,96117.53
2022-11-09T13:09:02.975Z,96109.41
2022-11-09T13:11:39.857Z,96121.69
2022-11-09T13:14:40.632Z,96121.31
2022-11-09T13:18:02.762Z,96123.22
2022-11-09T13:20:56.847Z,96126.66
2022-11-09T13:26:57.028Z,96123.47
2022-11-09T13:29:31.599Z,96134.97
2022-11-09T13:32:33.628Z,96133.34
2022-11-09T13:35:29.697Z,96140.63
2022-11-09T13:38:09.748Z,96144.78
2022-11-09T13:40:47.133Z,96147.44
2022-11-09T13:43:24.155Z,96150.50
2022-11-09T13:46:07.585Z,96153.53
2022-11-09T13:48:45.807Z,96155.09
2022-11-09T13:51:27.744Z,96149.59
2022-11-09T13:54:03.388Z,96155.34
2022-11-09T13:56:41.357Z,96155.66
2022-11-09T13:59:18.113Z,96155.59
2022-11-09T14:01:54.330Z,96152.53
2022-11-09T14:04:29.527Z,96155.16
2022-11-09T14:07:06.509Z,96160.91
2022-11-09T14:09:52.637Z,96158.50
2022-11-09T14:12:42.223Z,96157.28
2022-11-09T14:15:26.103Z,96159.91
2022-11-09T14:18:13.484Z,96166.34
2022-11-09T14:20:55.282Z,96163.19
2022-11-09T14:23:32.371Z,96167.72
2022-11-09T14:26:11.840Z,96174.66
2022-11-09T14:28:45.342Z,96174.91
2022-11-09T14:31:30.263Z,96178.75
2022-11-09T14:34:06.421Z,96169.00
2022-11-09T14:36:43.534Z,96170.91
2022-11-09T14:39:26.741Z,96181.25
2022-11-09T14:42:02.915Z,96175.41
2022-11-09T14:44:42.623Z,96179.66
2022-11-09T14:47:19.570Z,96187.25
2022-11-09T14:49:53.628Z,96189.53
2022-11-09T14:52:30.941Z,96186.06
2022-11-09T14:55:24.302Z,96192.94
2022-11-09T14:58:00.251Z,96197.91
2022-11-09T15:00:36.274Z,96185.09
2022-11-09T15:03:31.404Z,96193.25
2022-11-09T15:06:09.429Z,96195.09
2022-11-09T15:08:54.069Z,96199.34
2022-11-09T15:11:33.701Z,96200.44
2022-11-09T15:14:18.285Z,96211.53
2022-11-09T15:16:52.551Z,96208.34
2022-11-09T15:19:31.476Z,96224.94
2022-11-09T15:22:05.131Z,96221.41
2022-11-09T15:24:48.159Z,96218.72
2022-11-09T15:27:34.883Z,96222.53
2022-11-09T15:30:32.407Z,96225.59
2022-11-09T15:33:24.623Z,96225.50
2022-11-09T15:36:00.111Z,96225.09
2022-11-09T15:38:38.640Z,96220.78
2022-11-09T15:41:14.647Z,96226.94
2022-11-09T15:43:47.853Z,96226.50
2022-11-09T15:46:26.473Z,96228.78
2022-11-09T15:49:09.620Z,96233.75
2022-11-09T15:51:47.873Z,96235.19
2022-11-09T15:54:21.715Z,96240.59
2022-11-09T15:56:55.468Z,96234.72
2022-11-09T15:59:29.111Z,96240.78
2022-11-09T16:02:06.604Z,96244.28
2022-11-09T16:06:17.402Z,96249.22
2022-11-09T16:09:23.063Z,96253.38
2022-11-09T16:11:56.542Z,96263.31
2022-11-09T16:14:33.580Z,96267.56
2022-11-09T16:20:28.883Z,96283.91
2022-11-09T16:23:02.684Z,96293.88
2022-11-09T16:25:39.854Z,96288.50
2022-11-09T16:28:13.792Z,96302.31
2022-11-09T16:30:47.595Z,96294.56
2022-11-09T16:33:24.752Z,96306.47
2022-11-09T16:36:56.825Z,96308.38
2022-11-09T16:39:33.916Z,96317.16
2022-11-09T16:42:15.820Z,96324.09
2022-11-09T16:45:22.761Z,96326.69
2022-11-09T16:47:58.307Z,96340.59
2022-11-09T16:50:37.527Z,96349.78
2022-11-09T16:53:12.529Z,96346.66
2022-11-09T16:55:48.601Z,96348.56
2022-11-09T16:58:24.301Z,96346.59
2022-11-09T17:01:15.467Z,96343.81
2022-11-09T17:03:52.413Z,96349.09
2022-11-09T17:06:28.784Z,96357.94
2022-11-09T17:09:02.601Z,96352.84
2022-11-09T17:11:35.958Z,96361.25
2022-11-09T17:14:19.448Z,96364.28
2022-11-09T17:16:52.854Z,96373.47
2022-11-09T17:19:32.795Z,96377.66
2022-11-09T17:22:08.120Z,96381.13
2022-11-09T17:24:41.208Z,96381.03
2022-11-09T17:27:29.145Z,96390.22
2022-11-09T17:30:15.113Z,96391.09
2022-11-09T17:32:51.535Z,96389.88
2022-11-09T17:35:26.592Z,96400.63
2022-11-09T17:42:49.668Z,96399.16
2022-11-09T17:45:24.173Z,96396.47
2022-11-09T17:48:12.222Z,96396.47
2022-11-09T17:50:45.288Z,96407.91
2022-11-09T17:53:26.091Z,96406.34
2022-11-09T17:56:01.887Z,96415.63
2022-11-09T17:58:37.313Z,96425.59
2022-11-09T18:01:13.207Z,96416.41
2022-11-09T18:03:46.363Z,96423.25
2022-11-09T18:06:27.504Z,96429.41
2022-11-09T18:09:34.545Z,96433.31
2022-11-09T18:11:53.712Z,96434.78
2022-11-09T18:14:26.939Z,96431.44
2022-11-09T18:17:01.953Z,96435.31
2022-11-09T18:19:35.250Z,96433.31
2022-11-09T18:22:12.707Z,96442.19
2022-11-09T18:24:45.912Z,96444.88
2022-11-09T18:27:19.364Z,96442.59
2022-11-09T18:29:52.320Z,96440.69
2022-11-09T18:32:28.639Z,96442.69
2022-11-09T18:35:01.892Z,96448.50
2022-11-09T18:37:35.093Z,96445.03
2022-11-09T18:40:09.715Z,96457.34
2022-11-09T18:42:43.085Z,96451.19
2022-11-09T18:45:16.413Z,96457.34
2022-11-09T18:47:51.350Z,96458.91
2022-11-09T18:50:24.642Z,96458.47
2022-11-09T18:52:57.608Z,96453.88
2022-11-09T18:55:30.613Z,96467.31
2022-11-09T18:58:03.653Z,96456.13
2022-11-09T19:00:36.898Z,96459.59
2022-11-09T19:03:15.102Z,96462.28
2022-11-09T19:05:49.714Z,96459.94
2022-11-09T19:08:43.397Z,96461.50
2022-11-09T19:11:16.384Z,96464.53
2022-11-09T19:14:00.151Z,96464.63
2022-11-09T19:16:41.180Z,96456.13
2022-11-09T19:19:21.871Z,96465.75
2022-11-09T19:21:59.295Z,96464.19
2022-11-09T19:24:44.229Z,96469.69
2022-11-09T19:27:28.903Z,96462.38
2022-11-09T19:30:22.552Z,96467.06
2022-11-09T19:33:17.222Z,96464.28
2022-11-09T19:36:23.386Z,96471.31
2022-11-09T19:38:49.232Z,96462.13
2022-11-09T19:41:22.773Z,96454.31
2022-11-09T19:43:58.632Z,96467.41
2022-11-09T19:46:34.032Z,96468.53
2022-11-09T19:49:07.359Z,96464.28
2022-11-09T19:51:41.626Z,96474.69
2022-11-09T19:54:15.651Z,96467.00
2022-11-09T19:57:19.526Z,96465.50
2022-11-09T20:00:11.800Z,96459.00
2022-11-09T20:02:44.901Z,96466.28
2022-11-09T20:05:17.924Z,96468.19
2022-11-09T20:07:52.152Z,96475.47
2022-11-09T20:10:25.633Z,96468.53
2022-11-09T20:12:58.758Z,96471.22
2022-11-09T20:15:33.170Z,96479.28
2022-11-09T20:18:06.507Z,96480.84
2022-11-09T20:20:39.554Z,96481.97
2022-11-09T20:23:29.531Z,96488.56
2022-11-09T20:26:05.825Z,96488.91
2022-11-09T20:28:38.974Z,96485.81
2022-11-09T20:31:13.155Z,96499.25
2022-11-09T20:33:46.627Z,96498.03
2022-11-09T20:36:19.911Z,96504.19
2022-11-09T20:38:54.699Z,96513.03
2022-11-09T20:41:27.946Z,96502.97
2022-11-09T20:44:00.791Z,96514.06
2022-11-09T20:46:36.427Z,96517.53
2022-11-09T20:49:10.378Z,96525.94
2022-11-09T20:51:43.308Z,96528.19
2022-11-09T20:54:17.773Z,96533.59
2022-11-09T20:56:50.810Z,96529.66
2022-11-09T20:59:23.672Z,96528.88
2022-11-09T21:01:56.561Z,96538.06
2022-11-09T21:04:29.344Z,96536.50
2022-11-09T21:07:02.328Z,96539.19
2022-11-09T21:09:36.754Z,96539.19
2022-11-09T21:12:25.024Z,96542.59
2022-11-09T21:14:57.976Z,96535.63
2022-11-09T21:17:30.852Z,96543.38
2022-11-09T21:20:04.902Z,96542.59
2022-11-09T21:22:54.312Z,96543.72
2022-11-09T21:25:46.573Z,96538.31
2022-11-09T21:28:37.012Z,96539.78
2022-11-09T21:31:09.916Z,96549.75
2022-11-09T21:33:43.087Z,96548.63
2022-11-09T21:36:16.020Z,96552.00
2022-11-09T21:38:48.867Z,96553.56
2022-11-09T21:41:41.204Z,96564.75
2022-11-09T21:44:14.564Z,96564.31
2022-11-09T21:46:47.590Z,96569.69
2022-11-09T21:49:20.406Z,96568.91
2022-11-09T21:51:53.540Z,96582.00
2022-11-09T21:54:26.604Z,96572.38
2022-11-09T21:57:00.868Z,96573.94
2022-11-09T21:59:33.737Z,96581.22
2022-11-09T22:02:07.018Z,96579.31
2022-11-09T22:04:39.973Z,96580.88
2022-11-09T22:07:12.988Z,96580.88
2022-11-09T22:10:09.560Z,96583.56
2022-11-09T22:13:02.176Z,96581.34
2022-11-09T22:15:52.472Z,96577.88
2022-11-09T22:18:47.288Z,96581.75
2022-11-09T22:21:24.436Z,96595.63
2022-11-09T22:23:57.802Z,96585.22
2022-11-09T22:26:32.461Z,96586.47
2022-11-09T22:29:07.052Z,96596.53
2022-11-09T22:31:39.951Z,96598.00
2022-11-09T22:34:12.787Z,96605.72
2022-11-09T22:36:45.771Z,96603.47
2022-11-09T22:39:18.622Z,96598.09
2022-11-09T22:41:51.453Z,96596.97
2022-11-09T22:44:25.645Z,96606.25
2022-11-09T22:46:58.612Z,96598.19
2022-11-09T22:49:31.438Z,96604.34
2022-11-09T22:52:04.984Z,96611.63
2022-11-09T22:54:37.950Z,96610.06
2022-11-09T22:57:10.847Z,96616.22
2022-11-09T22:59:45.096Z,96619.69
2022-11-09T23:02:17.934Z,96616.91
2022-11-09T23:04:50.825Z,96612.31
2022-11-09T23:07:23.723Z,96625.41
2022-11-09T23:09:56.535Z,96629.66
2022-11-09T23:12:29.413Z,96625.06
2022-11-09T23:15:06.859Z,96625.84
2022-11-09T23:18:06.031Z,96628.53
2022-11-09T23:20:38.920Z,96631.69
2022-11-09T23:23:11.953Z,96632.47
2022-11-09T23:25:57.342Z,96646.69
2022-11-09T23:28:31.095Z,96644.44
2022-11-09T23:31:07.321Z,96655.63
2022-11-09T23:33:40.878Z,96650.25
2022-11-09T23:36:13.973Z,96649.91
2022-11-09T23:38:46.904Z,96654.94
2022-11-09T23:41:20.415Z,96654.94
2022-11-09T23:43:56.656Z,96655.06
2022-11-09T23:46:30.841Z,96653.81
2022-11-09T23:52:35.915Z,96651.66
2022-11-09T23:55:09.518Z,96648.19
2022-11-09T23:57:43.387Z,96654.34
